Wilmot, SD (57279)

9:17 PM CST on December 08, 2016 (GMT -0600)
Linden Beach | | Change Station

Elev 974 ft 45.41 °N, 96.65 °W | Updated 4 seconds ago

Clear
Clear
7.3 °F
Feels Like -9 °F
N
13.0
Wind Variable Wind from WNW
Gusts 17.4 mph

Today
High -- | Low -- °F
--% Chance of Precip.
Yesterday
High -- | Low -- °F
Precip. -- in
Pressure 30.59 in
Visibility 10.0 miles
Clouds Scattered Clouds 2200 ft
Scattered Clouds 9500 ft
Windchill -9 °F
Dew Point -26 °F
Humidity 19%
Rainfall 0.00 in
Snow Depth Not available.
7:54 AM 4:44 PM
Waxing Gibbous, 69% visible
METAR KVVV 090314Z AUTO 31011KT 10SM SCT022 SCT095 M14/M18 A3059 RMK AO2
Pressure 30.59 in
Visibility 10.0 miles
Clouds Scattered Clouds 2200 ft
Scattered Clouds 9500 ft
Windchill -9 °F
Dew Point -26 °F
Humidity 19%
Rainfall 0.00 in
Snow Depth Not available.
7:54 AM 4:44 PM
Waxing Gibbous, 69% visible
METAR KVVV 090314Z AUTO 31011KT 10SM SCT022 SCT095 M14/M18 A3059 RMK AO2

10-Day Weather Forecast

Almanac

Astronomy

Dec. 08, 2016 Rise Set
Actual Time
Civil Twilight
Nautical Twilight
Astronomical Twilight
Moon
Length of Visible Light
Length of Day
Tomorrow will be .
, % of the Moon is Illuminated

Today's Extremes

State Highs State Lows

Community

WunderPhotos

Upload Photos

1,956,351 photos uploaded!

WunderBlog® & News

Nearby

Air Quality

  Air Quality AQ Index Pollutant
Not available.

Snow Depth

Station Depth Elevation

Earthquake Activity

City Distance Mag. Time & Date
Minimum magnitude displayed is 2.5.

Coastal Water Temperatures

Place Temperature

Stations

Nearby Weather Stations

Station Location Temp. Windchill Dew Point Humidity Wind Precip. Elev Updated Type
                   

Watches & Warnings

There are currently no watches in effect.